createdAt,value
2017-08-02T00:01:47.006Z,4.30
2017-08-02T00:04:15.892Z,4.67
2017-08-02T00:06:44.789Z,4.50
2017-08-02T00:09:13.661Z,3.90
2017-08-02T00:11:42.554Z,4.33
2017-08-02T00:14:11.439Z,5.90
2017-08-02T00:16:40.311Z,4.83
2017-08-02T00:19:09.202Z,4.83
2017-08-02T00:21:38.069Z,4.90
2017-08-02T00:24:07.075Z,4.43
2017-08-02T00:26:35.944Z,4.93
2017-08-02T00:29:04.854Z,5.20
2017-08-02T00:31:33.729Z,4.87
2017-08-02T00:34:02.622Z,5.40
2017-08-02T00:36:31.500Z,5.33
2017-08-02T00:39:00.401Z,4.70
2017-08-02T00:41:29.278Z,4.03
2017-08-02T00:43:58.177Z,4.93
2017-08-02T00:46:27.046Z,4.20
2017-08-02T00:48:55.949Z,5.17
2017-08-02T00:51:24.832Z,4.90
2017-08-02T00:53:53.722Z,4.57
2017-08-02T00:56:22.590Z,9.30
2017-08-02T00:58:51.454Z,4.63
2017-08-02T01:01:20.341Z,5.23
2017-08-02T01:03:49.218Z,5.60
2017-08-02T01:06:18.126Z,5.07
2017-08-02T01:08:47.005Z,5.83
2017-08-02T01:11:15.894Z,6.10
2017-08-02T01:13:44.775Z,6.07
2017-08-02T01:16:13.671Z,5.17
2017-08-02T01:18:42.533Z,5.70
2017-08-02T01:21:11.426Z,6.43
2017-08-02T01:23:40.281Z,6.07
2017-08-02T01:26:09.158Z,5.57
2017-08-02T01:28:38.041Z,5.40
2017-08-02T01:31:07.045Z,5.70
2017-08-02T01:33:35.910Z,5.90
2017-08-02T01:36:04.814Z,5.10
2017-08-02T01:38:33.688Z,6.47
2017-08-02T01:41:02.570Z,6.03
2017-08-02T01:43:31.466Z,7.53
2017-08-02T01:46:00.352Z,5.33
2017-08-02T01:48:29.254Z,6.23
2017-08-02T01:50:58.118Z,6.23
2017-08-02T01:53:27.022Z,5.70
2017-08-02T01:55:55.894Z,6.17
2017-08-02T01:58:24.782Z,6.40
2017-08-02T02:00:53.654Z,6.07
2017-08-02T02:03:22.533Z,7.00
2017-08-02T02:05:51.398Z,7.63
2017-08-02T02:08:20.304Z,6.20
2017-08-02T02:10:49.183Z,7.40
2017-08-02T02:13:18.060Z,8.13
2017-08-02T02:15:46.938Z,7.80
2017-08-02T02:18:15.841Z,6.93
2017-08-02T02:20:44.720Z,7.30
2017-08-02T02:23:13.591Z,8.27
2017-08-02T02:25:42.479Z,7.70
2017-08-02T02:28:11.357Z,8.20
2017-08-02T02:30:40.256Z,7.90
2017-08-02T02:33:09.137Z,7.97
2017-08-02T02:35:38.027Z,7.87
2017-08-02T02:38:07.524Z,8.10
2017-08-02T02:40:36.407Z,8.63
2017-08-02T02:43:05.269Z,9.00
2017-08-02T02:45:34.176Z,8.17
2017-08-02T02:48:03.050Z,8.37
2017-08-02T02:50:31.947Z,7.37
2017-08-02T02:53:00.818Z,6.87
2017-08-02T02:55:29.721Z,10.17
2017-08-02T02:57:58.599Z,7.47
2017-08-02T03:00:27.500Z,8.43
2017-08-02T03:02:56.393Z,8.37
2017-08-02T03:05:25.253Z,8.40
2017-08-02T03:07:54.156Z,10.00
2017-08-02T03:10:23.032Z,9.50
2017-08-02T03:12:51.918Z,10.23
2017-08-02T03:15:20.790Z,11.33
2017-08-02T03:17:49.678Z,10.37
2017-08-02T03:20:18.555Z,11.40
2017-08-02T03:22:47.463Z,11.30
2017-08-02T03:25:16.343Z,10.63
2017-08-02T03:27:45.237Z,11.10
2017-08-02T03:30:14.109Z,12.97
2017-08-02T03:32:43.016Z,17.80
2017-08-02T03:35:11.886Z,12.53
2017-08-02T03:37:40.783Z,11.40
2017-08-02T03:40:09.663Z,11.37
2017-08-02T03:42:38.566Z,12.50
2017-08-02T03:45:07.448Z,13.43
2017-08-02T03:47:36.338Z,13.50
2017-08-02T03:50:05.215Z,12.83
2017-08-02T03:52:34.090Z,12.47
2017-08-02T03:55:02.983Z,13.40
2017-08-02T03:57:31.880Z,13.80
2017-08-02T04:00:00.773Z,15.50
2017-08-02T04:02:29.659Z,14.57
2017-08-02T04:04:58.564Z,12.93
2017-08-02T04:07:27.453Z,13.90
2017-08-02T04:09:56.342Z,13.70
2017-08-02T04:12:25.227Z,14.10
2017-08-02T04:14:54.117Z,14.40
2017-08-02T04:17:22.996Z,15.20
2017-08-02T04:19:51.881Z,13.53
2017-08-02T04:22:20.767Z,14.50
2017-08-02T04:24:49.667Z,12.50
2017-08-02T04:27:18.555Z,13.67
2017-08-02T04:29:47.459Z,12.53
2017-08-02T04:32:16.338Z,13.57
2017-08-02T04:34:45.214Z,12.97
2017-08-02T04:37:14.123Z,12.70
2017-08-02T04:39:43.005Z,13.97
2017-08-02T04:42:11.895Z,13.43
2017-08-02T04:44:40.770Z,13.63
2017-08-02T04:47:09.681Z,14.17
2017-08-02T04:49:38.562Z,12.70
2017-08-02T04:52:07.471Z,15.37
2017-08-02T04:54:36.350Z,15.00
2017-08-02T04:57:05.251Z,15.53
2017-08-02T04:59:34.118Z,14.50
2017-08-02T05:02:03.023Z,16.80
2017-08-02T05:04:31.907Z,16.70
2017-08-02T05:07:00.808Z,17.40
2017-08-02T05:09:29.681Z,16.23
2017-08-02T05:11:58.592Z,17.50
2017-08-02T05:14:27.492Z,18.33
2017-08-02T05:16:56.390Z,15.23
2017-08-02T05:19:25.295Z,14.60
2017-08-02T05:21:54.179Z,16.07
2017-08-02T05:24:23.070Z,15.90
2017-08-02T05:26:51.950Z,15.90
2017-08-02T05:29:20.844Z,17.50
2017-08-02T05:31:49.714Z,15.97
2017-08-02T05:34:18.602Z,14.67
2017-08-02T05:36:47.492Z,15.90
2017-08-02T05:39:16.391Z,15.37
2017-08-02T05:41:45.270Z,16.00
2017-08-02T05:44:14.172Z,14.77
2017-08-02T05:46:43.063Z,17.60
2017-08-02T05:49:11.970Z,17.87
2017-08-02T05:51:40.856Z,16.70
2017-08-02T05:54:09.731Z,17.80
2017-08-02T05:56:38.622Z,18.00
2017-08-02T05:59:07.559Z,18.50
2017-08-02T06:01:36.466Z,18.07
2017-08-02T06:04:05.347Z,20.13
2017-08-02T06:06:34.244Z,17.17
2017-08-02T06:09:03.122Z,17.13
2017-08-02T06:11:32.031Z,18.67
2017-08-02T06:14:00.914Z,18.07
2017-08-02T06:16:29.815Z,19.80
2017-08-02T06:18:58.709Z,18.77
2017-08-02T06:21:27.601Z,18.13
2017-08-02T06:23:56.481Z,16.80
2017-08-02T06:26:25.379Z,18.47
2017-08-02T06:28:54.265Z,20.17
2017-08-02T06:31:23.166Z,18.87
2017-08-02T06:33:52.047Z,15.20
2017-08-02T06:36:20.935Z,18.27
2017-08-02T06:38:49.811Z,15.83
2017-08-02T06:41:18.685Z,16.37
2017-08-02T06:43:47.578Z,18.00
2017-08-02T06:46:16.459Z,18.13
2017-08-02T06:48:45.370Z,16.70
2017-08-02T06:51:14.260Z,16.97
2017-08-02T06:53:43.149Z,16.57
2017-08-02T06:56:12.035Z,14.00
2017-08-02T06:58:40.928Z,17.03
2017-08-02T07:01:09.807Z,14.37
2017-08-02T07:03:38.693Z,13.30
2017-08-02T07:06:07.579Z,14.60
2017-08-02T07:08:36.480Z,13.63
2017-08-02T07:11:05.381Z,13.57
2017-08-02T07:13:34.285Z,14.33
2017-08-02T07:16:03.161Z,14.93
2017-08-02T07:18:32.052Z,18.10
2017-08-02T07:21:00.945Z,12.83
2017-08-02T07:23:29.826Z,13.33
2017-08-02T07:25:58.739Z,13.10
2017-08-02T07:28:27.630Z,12.27
2017-08-02T07:30:56.531Z,12.13
2017-08-02T07:33:25.422Z,11.77
2017-08-02T07:35:54.332Z,11.63
2017-08-02T07:38:23.216Z,16.50
2017-08-02T07:40:52.131Z,11.80
2017-08-02T07:43:21.015Z,13.48
2017-08-02T07:45:49.922Z,12.40
2017-08-02T07:48:18.802Z,14.20
2017-08-02T07:50:47.703Z,11.55
2017-08-02T07:53:16.600Z,11.25
2017-08-02T07:55:45.504Z,10.82
2017-08-02T07:58:14.388Z,10.75
2017-08-02T08:00:43.279Z,9.98
2017-08-02T08:03:12.195Z,12.48
2017-08-02T08:05:41.093Z,9.82
2017-08-02T08:08:09.999Z,8.68
2017-08-02T08:10:38.866Z,8.87
2017-08-02T08:13:07.771Z,10.88
2017-08-02T08:15:36.663Z,8.82
2017-08-02T08:18:05.562Z,9.73
2017-08-02T08:20:34.439Z,9.75
2017-08-02T08:23:03.339Z,11.68
2017-08-02T08:25:32.214Z,12.55
2017-08-02T08:28:01.120Z,10.82
2017-08-02T08:30:29.993Z,11.52
2017-08-02T08:32:58.899Z,10.90
2017-08-02T08:35:27.769Z,12.13
2017-08-02T08:37:56.684Z,11.35
2017-08-02T08:40:25.559Z,10.18
2017-08-02T08:42:54.444Z,9.98
2017-08-02T08:45:23.339Z,9.82
2017-08-02T08:47:52.235Z,12.07
2017-08-02T08:50:21.135Z,10.30
2017-08-02T08:52:50.014Z,11.63
2017-08-02T08:55:18.906Z,9.82
2017-08-02T08:57:47.782Z,8.13
2017-08-02T09:00:16.665Z,9.23
2017-08-02T09:02:45.547Z,7.10
2017-08-02T09:05:14.433Z,7.93
2017-08-02T09:07:43.314Z,8.00
2017-08-02T09:10:12.201Z,8.65
2017-08-02T09:12:41.065Z,7.55
2017-08-02T09:15:09.963Z,7.25
2017-08-02T09:17:38.839Z,8.40
2017-08-02T09:20:07.745Z,7.53
2017-08-02T09:22:36.622Z,7.25
2017-08-02T09:25:05.528Z,6.75
2017-08-02T09:27:34.401Z,8.63
2017-08-02T09:30:03.280Z,8.73
2017-08-02T09:32:32.169Z,6.90
2017-08-02T09:35:01.093Z,6.75
2017-08-02T09:37:29.985Z,7.07
2017-08-02T09:39:58.851Z,8.70
2017-08-02T09:42:27.738Z,9.35
2017-08-02T09:44:56.619Z,7.22
2017-08-02T09:47:25.501Z,8.10
2017-08-02T09:49:54.376Z,7.50
2017-08-02T09:52:23.271Z,7.95
2017-08-02T09:54:52.141Z,7.90
2017-08-02T09:57:21.026Z,7.65
2017-08-02T09:59:49.897Z,7.75
2017-08-02T10:02:18.784Z,7.03
2017-08-02T10:04:47.664Z,7.47
2017-08-02T10:07:16.550Z,7.85
2017-08-02T10:09:45.433Z,6.75
2017-08-02T10:12:14.309Z,7.47
2017-08-02T10:14:43.213Z,8.30
2017-08-02T10:17:12.091Z,10.05
2017-08-02T10:19:40.982Z,9.13
2017-08-02T10:22:09.853Z,9.00
2017-08-02T10:24:38.741Z,7.78
2017-08-02T10:27:07.619Z,7.53
2017-08-02T10:29:36.505Z,8.80
2017-08-02T10:32:05.383Z,8.95
2017-08-02T10:34:34.287Z,7.20
2017-08-02T10:37:03.166Z,9.60
2017-08-02T10:39:32.061Z,8.70
2017-08-02T10:42:00.941Z,9.20
2017-08-02T10:44:29.827Z,8.10
2017-08-02T10:46:58.718Z,8.00
2017-08-02T10:49:27.598Z,8.68
2017-08-02T10:51:56.466Z,7.85
2017-08-02T10:54:25.368Z,8.07
2017-08-02T10:56:54.245Z,8.00
2017-08-02T10:59:23.128Z,7.47
2017-08-02T11:01:52.090Z,7.20
2017-08-02T11:04:21.001Z,7.90
2017-08-02T11:06:49.899Z,8.05
2017-08-02T11:09:18.768Z,9.63
2017-08-02T11:11:47.679Z,11.98
2017-08-02T11:14:16.547Z,9.35
2017-08-02T11:16:45.454Z,9.70
2017-08-02T11:19:14.325Z,8.80
2017-08-02T11:21:43.209Z,8.85
2017-08-02T11:24:12.092Z,8.27
2017-08-02T11:26:40.958Z,8.55
2017-08-02T11:29:09.845Z,8.13
2017-08-02T11:31:38.730Z,8.45
2017-08-02T11:34:07.620Z,8.48
2017-08-02T11:36:36.498Z,8.20
2017-08-02T11:39:05.511Z,8.13
2017-08-02T11:41:34.385Z,7.00
2017-08-02T11:44:03.265Z,9.15
2017-08-02T11:46:32.185Z,8.45
2017-08-02T11:49:01.067Z,8.65
2017-08-02T11:51:29.969Z,8.18
2017-08-02T11:53:58.846Z,9.13
2017-08-02T11:56:27.750Z,8.82
2017-08-02T11:58:56.626Z,9.27
2017-08-02T12:01:25.519Z,9.18
2017-08-02T12:03:54.394Z,9.02
2017-08-02T12:06:23.295Z,8.18
2017-08-02T12:08:52.194Z,8.48
2017-08-02T12:11:21.105Z,8.20
2017-08-02T12:13:49.988Z,7.90
2017-08-02T12:16:18.872Z,7.53
2017-08-02T12:18:47.758Z,9.30
2017-08-02T12:21:16.639Z,7.68
2017-08-02T12:23:45.530Z,7.35
2017-08-02T12:26:14.414Z,7.72
2017-08-02T12:28:43.311Z,7.93
2017-08-02T12:31:12.182Z,7.45
2017-08-02T12:33:41.070Z,8.82
2017-08-02T12:36:09.948Z,8.05
2017-08-02T12:38:39.635Z,9.32
2017-08-02T12:41:08.523Z,9.55
2017-08-02T12:43:37.403Z,8.52
2017-08-02T12:46:06.296Z,8.75
2017-08-02T12:48:35.170Z,9.18
2017-08-02T12:51:04.061Z,7.57
2017-08-02T12:53:32.929Z,8.25
2017-08-02T12:56:01.838Z,7.90
2017-08-02T12:58:30.724Z,8.23
2017-08-02T13:00:59.603Z,7.82
2017-08-02T13:03:28.496Z,8.18
2017-08-02T13:05:57.361Z,7.82
2017-08-02T13:08:26.250Z,7.37
2017-08-02T13:10:55.136Z,7.22
2017-08-02T13:13:24.022Z,7.53
2017-08-02T13:15:52.895Z,7.32
2017-08-02T13:18:21.797Z,7.40
2017-08-02T13:20:50.686Z,9.35
2017-08-02T13:23:19.558Z,8.30
2017-08-02T13:25:48.441Z,8.52
2017-08-02T13:28:17.319Z,7.78
2017-08-02T13:30:46.214Z,8.23
2017-08-02T13:33:15.077Z,9.23
2017-08-02T13:35:43.971Z,6.85
2017-08-02T13:38:12.842Z,7.32
2017-08-02T13:40:41.734Z,8.23
2017-08-02T13:43:10.598Z,7.97
2017-08-02T13:45:39.495Z,7.45
2017-08-02T13:48:08.368Z,7.78
2017-08-02T13:50:37.267Z,7.28
2017-08-02T13:53:06.142Z,6.80
2017-08-02T13:55:35.014Z,7.30
2017-08-02T13:58:03.901Z,7.87
2017-08-02T14:00:32.780Z,6.97
2017-08-02T14:03:01.661Z,7.53
2017-08-02T14:05:30.535Z,6.87
2017-08-02T14:07:59.413Z,7.12
2017-08-02T14:10:28.288Z,6.82
2017-08-02T14:12:57.184Z,6.28
2017-08-02T14:15:26.085Z,6.45
2017-08-02T14:17:54.978Z,7.97
2017-08-02T14:20:23.865Z,7.90
2017-08-02T14:22:52.776Z,6.72
2017-08-02T14:25:21.660Z,7.10
2017-08-02T14:27:50.546Z,7.53
2017-08-02T14:30:19.409Z,7.35
2017-08-02T14:32:48.303Z,6.47
2017-08-02T14:35:17.178Z,8.68
2017-08-02T14:37:46.098Z,6.12
2017-08-02T14:40:14.974Z,6.60
2017-08-02T14:42:43.867Z,6.57
2017-08-02T14:45:12.737Z,6.03
2017-08-02T14:47:41.630Z,5.93
2017-08-02T14:50:10.515Z,5.90
2017-08-02T14:52:39.386Z,6.25
2017-08-02T14:55:08.278Z,9.00
2017-08-02T14:57:37.156Z,7.87
2017-08-02T15:00:06.183Z,6.50
2017-08-02T15:02:35.068Z,5.28
2017-08-02T15:05:03.954Z,6.03
2017-08-02T15:07:32.836Z,5.40
2017-08-02T15:10:01.721Z,6.10
2017-08-02T15:12:30.609Z,5.40
2017-08-02T15:14:59.523Z,4.97
2017-08-02T15:17:28.400Z,4.97
2017-08-02T15:19:57.309Z,5.70
2017-08-02T15:22:26.200Z,9.32
2017-08-02T15:24:55.090Z,5.85
2017-08-02T15:27:23.970Z,5.05
2017-08-02T15:29:52.859Z,5.75
2017-08-02T15:32:21.729Z,6.03
2017-08-02T15:34:50.619Z,5.65
2017-08-02T15:37:19.486Z,4.50
2017-08-02T15:39:48.378Z,4.30
2017-08-02T15:42:17.260Z,5.50
2017-08-02T15:44:46.151Z,7.57
2017-08-02T15:47:15.017Z,4.03
2017-08-02T15:49:43.910Z,5.03
2017-08-02T15:52:12.783Z,4.25
2017-08-02T15:54:41.650Z,6.62
2017-08-02T15:57:10.546Z,4.22
2017-08-02T15:59:39.427Z,5.33
2017-08-02T16:02:08.314Z,4.70
2017-08-02T16:04:37.191Z,4.70
2017-08-02T16:07:06.077Z,5.65
2017-08-02T16:09:34.960Z,6.87
2017-08-02T16:12:03.837Z,5.40
2017-08-02T16:14:32.720Z,6.07
2017-08-02T16:17:01.606Z,4.85
2017-08-02T16:19:30.500Z,4.85
2017-08-02T16:21:59.386Z,6.35
2017-08-02T16:24:28.259Z,4.78
2017-08-02T16:26:57.149Z,5.35
2017-08-02T16:29:26.036Z,4.90
2017-08-02T16:31:54.907Z,4.60
2017-08-02T16:34:23.806Z,5.33
2017-08-02T16:36:52.684Z,5.13
2017-08-02T16:39:21.589Z,4.57
2017-08-02T16:41:50.462Z,5.20
2017-08-02T16:44:19.355Z,4.97
2017-08-02T16:46:48.222Z,4.60
2017-08-02T16:49:17.116Z,5.13
2017-08-02T16:51:46.077Z,5.90
2017-08-02T16:54:14.980Z,5.63
2017-08-02T16:56:43.864Z,5.40
2017-08-02T16:59:12.745Z,5.33
2017-08-02T17:01:41.618Z,5.13
2017-08-02T17:04:10.514Z,5.90
2017-08-02T17:06:39.394Z,7.27
2017-08-02T17:09:08.287Z,7.00
2017-08-02T17:11:37.158Z,4.77
2017-08-02T17:14:06.038Z,4.50
2017-08-02T17:16:34.935Z,6.30
2017-08-02T17:19:03.814Z,5.10
2017-08-02T17:21:32.698Z,4.83
2017-08-02T17:24:01.575Z,5.33
2017-08-02T17:26:30.479Z,5.17
2017-08-02T17:28:59.355Z,5.43
2017-08-02T17:31:28.247Z,6.70
2017-08-02T17:33:57.113Z,5.57
2017-08-02T17:36:26.034Z,7.23
2017-08-02T17:38:54.897Z,5.20
2017-08-02T17:41:23.781Z,6.50
2017-08-02T17:43:52.646Z,5.93
2017-08-02T17:46:21.534Z,9.90
2017-08-02T17:48:50.411Z,9.63
2017-08-02T17:51:19.308Z,9.77
2017-08-02T17:53:48.192Z,6.40
2017-08-02T17:56:17.062Z,5.63
2017-08-02T17:58:46.052Z,5.80
2017-08-02T18:01:14.922Z,6.00
2017-08-02T18:03:43.814Z,5.90
2017-08-02T18:06:12.690Z,5.57
2017-08-02T18:08:41.582Z,6.77
2017-08-02T18:11:10.457Z,7.00
2017-08-02T18:13:39.356Z,12.23
2017-08-02T18:16:08.231Z,7.60
2017-08-02T18:18:37.113Z,7.30
2017-08-02T18:21:05.982Z,7.63
2017-08-02T18:23:34.880Z,6.80
2017-08-02T18:26:03.761Z,6.27
2017-08-02T18:28:32.688Z,5.93
2017-08-02T18:31:01.567Z,6.33
2017-08-02T18:33:30.454Z,6.10
2017-08-02T18:35:59.323Z,8.03
2017-08-02T18:38:28.198Z,8.60
2017-08-02T18:40:57.106Z,7.57
2017-08-02T18:43:25.991Z,8.33
2017-08-02T18:45:54.899Z,8.80
2017-08-02T18:48:23.774Z,6.47
2017-08-02T18:50:52.667Z,9.13
2017-08-02T18:53:21.535Z,7.43
2017-08-02T18:55:50.429Z,18.47
2017-08-02T18:58:19.298Z,10.13
2017-08-02T19:00:48.191Z,7.10
2017-08-02T19:03:17.075Z,10.03
2017-08-02T19:05:45.993Z,8.40
2017-08-02T19:08:14.876Z,6.73
2017-08-02T19:10:43.769Z,7.30
2017-08-02T19:13:12.643Z,6.83
2017-08-02T19:15:41.529Z,7.33
2017-08-02T19:18:10.415Z,6.07
2017-08-02T19:20:39.295Z,8.60
2017-08-02T19:23:08.195Z,8.40
2017-08-02T19:25:37.076Z,8.70
2017-08-02T19:28:05.986Z,10.13
2017-08-02T19:30:34.863Z,8.30
2017-08-02T19:33:03.763Z,7.80
2017-08-02T19:35:32.652Z,7.30
2017-08-02T19:38:01.551Z,6.60
2017-08-02T19:40:30.432Z,10.33
2017-08-02T19:42:59.330Z,7.30
2017-08-02T19:45:28.209Z,8.93
2017-08-02T19:47:57.109Z,7.37
2017-08-02T19:50:25.983Z,8.33
2017-08-02T19:52:54.873Z,7.97
2017-08-02T19:55:23.738Z,7.50
2017-08-02T19:57:52.629Z,7.77
2017-08-02T20:00:21.517Z,8.70
2017-08-02T20:02:50.411Z,7.57
2017-08-02T20:05:19.281Z,8.30
2017-08-02T20:07:48.159Z,25.57
2017-08-02T20:10:17.046Z,26.20
2017-08-02T20:12:45.949Z,25.80
2017-08-02T20:15:14.829Z,9.93
2017-08-02T20:17:43.702Z,11.90
2017-08-02T20:20:12.585Z,11.50
2017-08-02T20:22:41.470Z,14.90
2017-08-02T20:25:10.370Z,12.23
2017-08-02T20:27:39.246Z,9.07
2017-08-02T20:30:08.149Z,9.77
2017-08-02T20:32:37.017Z,7.93
2017-08-02T20:35:05.958Z,8.17
2017-08-02T20:37:34.828Z,8.40
2017-08-02T20:40:03.733Z,7.10
2017-08-02T20:42:32.610Z,8.67
2017-08-02T20:45:01.494Z,7.80
2017-08-02T20:47:30.363Z,10.83
2017-08-02T20:49:59.233Z,9.30
2017-08-02T20:52:28.127Z,9.47
2017-08-02T20:54:56.999Z,9.47
2017-08-02T20:57:25.984Z,9.30
2017-08-02T20:59:54.864Z,7.83
2017-08-02T21:02:23.922Z,7.73
2017-08-02T21:04:52.802Z,7.80
2017-08-02T21:07:21.686Z,8.47
2017-08-02T21:09:50.572Z,9.23
2017-08-02T21:12:19.462Z,7.90
2017-08-02T21:14:48.340Z,8.77
2017-08-02T21:17:17.232Z,9.27
2017-08-02T21:19:46.112Z,8.00
2017-08-02T21:22:15.007Z,8.77
2017-08-02T21:24:43.888Z,9.53
2017-08-02T21:27:12.780Z,9.73
2017-08-02T21:29:41.678Z,8.83
2017-08-02T21:32:10.540Z,8.20
2017-08-02T21:34:39.435Z,8.00
2017-08-02T21:37:08.305Z,8.93
2017-08-02T21:39:37.198Z,8.63
2017-08-02T21:42:06.075Z,8.37
2017-08-02T21:44:34.966Z,9.00
2017-08-02T21:47:03.833Z,9.97
2017-08-02T21:49:32.727Z,9.13
2017-08-02T21:52:01.605Z,8.50
2017-08-02T21:54:30.484Z,8.57
2017-08-02T21:56:59.361Z,8.20
2017-08-02T21:59:28.255Z,8.67
2017-08-02T22:01:57.145Z,8.53
2017-08-02T22:04:26.047Z,8.37
2017-08-02T22:06:54.923Z,9.10
2017-08-02T22:09:23.799Z,9.10
2017-08-02T22:11:52.690Z,10.03
2017-08-02T22:14:21.561Z,9.13
2017-08-02T22:16:50.461Z,9.37
2017-08-02T22:19:19.325Z,9.00
2017-08-02T22:21:48.219Z,9.00
2017-08-02T22:24:17.095Z,8.87
2017-08-02T22:26:45.988Z,9.23
2017-08-02T22:29:14.857Z,8.30
2017-08-02T22:31:43.750Z,9.97
2017-08-02T22:34:12.631Z,9.63
2017-08-02T22:36:41.526Z,9.83
2017-08-02T22:39:10.393Z,8.93
2017-08-02T22:41:39.276Z,9.17
2017-08-02T22:44:08.156Z,9.10
2017-08-02T22:46:37.058Z,10.30
2017-08-02T22:49:05.927Z,9.37
2017-08-02T22:51:34.831Z,10.23
2017-08-02T22:54:03.706Z,9.67
2017-08-02T22:56:32.583Z,10.60
2017-08-02T22:59:01.479Z,10.63
2017-08-02T23:01:30.352Z,13.03
2017-08-02T23:03:59.251Z,10.30
2017-08-02T23:06:28.124Z,11.00
2017-08-02T23:08:57.010Z,9.80
2017-08-02T23:11:25.888Z,10.30
2017-08-02T23:13:54.773Z,10.63
2017-08-02T23:16:23.646Z,11.70
2017-08-02T23:18:52.538Z,10.00
2017-08-02T23:21:21.413Z,10.20
2017-08-02T23:23:50.311Z,9.73
2017-08-02T23:26:19.186Z,10.13
2017-08-02T23:28:48.084Z,9.10
2017-08-02T23:31:16.954Z,10.23
2017-08-02T23:33:45.951Z,11.83
2017-08-02T23:36:14.826Z,14.20
2017-08-02T23:38:43.717Z,12.90
2017-08-02T23:41:12.611Z,12.70
2017-08-02T23:43:41.477Z,9.87
2017-08-02T23:46:10.381Z,10.70
2017-08-02T23:48:39.258Z,10.77
2017-08-02T23:51:08.151Z,10.00
2017-08-02T23:53:37.035Z,10.27
2017-08-02T23:56:05.934Z,11.87
2017-08-02T23:58:34.810Z,10.33
